Flight Track Log - Related Links

Times and Time Zones

All times are in EDT time to prevent confusion due to time zone crossing. See the SWA3937 flight status page for this flight to view local times or setup timezone preferences in your user account.

Time Position Orientation Groundspeed Altitude Reporting Facility
EDT Latitude Longitude Course Direction KTS MPH feet Rate Location/Type
Thu 02:57:01 PM 33.4333 -112.0333 248° West 177 204 2,200  Level Phoenix TRACON
Thu 02:57:44 PM 33.4167 -112.0833 248° West 200 230 3,100 1,235 Climbing Phoenix TRACON
Thu 02:58:09 PM 33.4108 -112.1014 249° West 213 245 3,600 2,414 Climbing Albuquerque Center
Thu 02:59:11 PM 33.3769 -112.1672 238° Southwest 241 277 6,600 2,903 Climbing Albuquerque Center
Thu 03:00:13 PM 33.3225 -112.1272 148° Southeast 261 300 9,600 2,516 Climbing Albuquerque Center
Thu 03:01:15 PM 33.3317 -112.0333 83° East 293 337 11,800 2,661 Climbing Albuquerque Center
Thu 03:02:17 PM 33.3661 -111.9086 72° East 334 384 15,100 2,855 Climbing Albuquerque Center
Thu 03:03:19 PM 33.3953 -111.7931 73° East 360 414 17,700 2,419 Climbing Albuquerque Center
Thu 03:04:21 PM 33.4269 -111.6714 73° East 383 441 20,100 2,371 Climbing Albuquerque Center
Thu 03:05:23 PM 33.4600 -111.5431 73° East 403 464 22,600 2,516 Climbing Albuquerque Center
Thu 03:06:25 PM 33.5000 -111.3822 73° East 422 486 25,300 2,226 Climbing Albuquerque Center
Thu 03:07:27 PM 33.5183 -111.2381 81° East 442 509 27,200 1,742 Climbing Albuquerque Center
Thu 03:08:29 PM 33.5344 -111.0872 83° East 456 525 28,900 1,548 Climbing Albuquerque Center
Thu 03:09:31 PM 33.5519 -110.9319 82° East 467 537 30,400 1,392 Climbing Albuquerque Center
Thu 03:10:34 PM 33.5933 -110.7811 72° East 475 547 31,800 1,152 Climbing Albuquerque Center
Thu 03:11:36 PM 33.6419 -110.6289 69° East 485 558 32,800 1,355 Climbing Albuquerque Center
Thu 03:12:38 PM 33.7022 -110.4436 69° East 493 567 34,600 1,452 Climbing Albuquerque Center
Thu 03:13:40 PM 33.7497 -110.2892 70° East 499 574 35,800 919 Climbing Albuquerque Center
Thu 03:14:42 PM 33.8000 -110.1325 69° East 502 578 36,500 581 Climbing Albuquerque Center
Thu 03:15:44 PM 33.8517 -109.9708 69° East 514 592 37,000 242 Climbing Albuquerque Center
Thu 03:16:46 PM 33.9031 -109.8097 69° East 518 596 37,000  Level Albuquerque Center
Thu 03:17:48 PM 33.9639 -109.6169 69° East 517 595 37,000  Level Albuquerque Center
Thu 03:18:50 PM 34.0147 -109.4569 69° East 515 593 37,000  Level Albuquerque Center
Thu 03:19:52 PM 34.0650 -109.2958 69° East 516 594 37,000  Level Albuquerque Center
Thu 03:20:54 PM 34.1150 -109.1344 69° East 516 594 37,000  Level Albuquerque Center
Thu 03:21:56 PM 34.1592 -108.9703 72° East 517 595 37,000  Level Albuquerque Center
Thu 03:22:58 PM 34.1800 -108.7600 83° East 527 606 37,000  Level Albuquerque Center
Thu 03:24:00 PM 34.1969 -108.5847 83° East 528 608 37,000  Level Albuquerque Center
Thu 03:25:02 PM 34.2139 -108.4075 83° East 532 612 37,000  Level Albuquerque Center
Thu 03:26:04 PM 34.2308 -108.2308 83° East 533 613 37,000  Level Albuquerque Center
Thu 03:27:06 PM 34.2458 -108.0425 84° East 537 618 37,000  Level Albuquerque Center
Thu 03:28:08 PM 34.2619 -107.8644 84° East 534 615 37,000  Level Albuquerque Center
Thu 03:29:11 PM 34.2783 -107.6867 84° East 533 613 37,000  Level Albuquerque Center
Thu 03:30:13 PM 34.2972 -107.4756 84° East 529 609 37,000  Level Albuquerque Center
Thu 03:31:15 PM 34.3125 -107.3019 84° East 525 604 37,000  Level Albuquerque Center
Thu 03:32:17 PM 34.3294 -107.1208 83° East 533 613 37,000  Level Albuquerque Center
Thu 03:33:19 PM 34.3442 -106.9494 84° East 525 604 37,000  Level Albuquerque Center
Thu 03:34:21 PM 34.3575 -106.7739 85° East 525 604 37,000  Level Albuquerque Center
Thu 03:35:23 PM 34.3744 -106.5639 84° East 528 608 37,000  Level Albuquerque Center
Thu 03:36:25 PM 34.3878 -106.3869 85° East 529 609 37,000  Level Albuquerque Center
Thu 03:37:27 PM 34.4031 -106.1967 84° East 529 609 37,000  Level Albuquerque Center
Thu 03:38:29 PM 34.4158 -106.0167 85° East 531 611 37,000  Level Albuquerque Center
Thu 03:39:31 PM 34.4306 -105.8403 84° East 527 606 37,000  Level Albuquerque Center
Thu 03:40:33 PM 34.4428 -105.6606 85° East 529 609 37,000  Level Albuquerque Center
Thu 03:41:35 PM 34.4564 -105.4814 85° East 530 610 37,000  Level Albuquerque Center
Thu 03:42:37 PM 34.4686 -105.3006 85° East 534 615 37,000  Level Albuquerque Center
Thu 03:43:39 PM 34.4833 -105.0894 85° East 535 616 37,000  Level Albuquerque Center
Thu 03:44:41 PM 34.4956 -104.9092 85° East 535 616 37,000  Level Albuquerque Center
Thu 03:45:43 PM 34.5081 -104.7300 85° East 533 613 37,000  Level Albuquerque Center
Thu 03:46:45 PM 34.5197 -104.5533 85° East 527 606 37,000  Level Albuquerque Center
Thu 03:47:48 PM 34.5311 -104.3750 86° East 528 608 37,000  Level Albuquerque Center
Thu 03:48:50 PM 34.5419 -104.1972 86° East 528 608 37,000  Level Albuquerque Center
Thu 03:49:52 PM 34.5542 -103.9897 86° East 527 606 37,000  Level Albuquerque Center
Thu 03:50:54 PM 34.5650 -103.8100 86° East 530 610 37,000  Level Albuquerque Center
Thu 03:51:56 PM 34.5756 -103.6317 86° East 530 610 37,000  Level Albuquerque Center
Thu 03:52:58 PM 34.5853 -103.4514 86° East 531 611 37,000  Level Albuquerque Center
Thu 03:54:00 PM 34.5956 -103.2714 86° East 533 613 37,000  Level Albuquerque Center
Thu 03:55:02 PM 34.6044 -103.0908 87° East 534 615 37,000  Level Albuquerque Center
Thu 03:56:04 PM 34.6150 -102.8797 86° East 533 613 37,000  Level Albuquerque Center
Thu 03:57:06 PM 34.6228 -102.6992 87° East 533 613 37,000  Level Albuquerque Center
Thu 03:58:08 PM 34.6325 -102.5186 86° East 535 616 37,000  Level Albuquerque Center
Thu 03:59:10 PM 34.6403 -102.3389 87° East 535 616 37,000  Level Albuquerque Center
Thu 04:00:12 PM 34.6481 -102.1586 87° East 538 619 37,000  Level Albuquerque Center
Thu 04:01:14 PM 34.6561 -101.9769 87° East 541 623 37,000  Level Albuquerque Center
Thu 04:02:16 PM 34.6661 -101.7592 87° East 543 625 37,000  Level Albuquerque Center
Thu 04:03:18 PM 34.6731 -101.5769 87° East 545 627 37,000  Level Albuquerque Center
Thu 04:04:20 PM 34.6797 -101.3953 87° East 546 628 37,000  Level Albuquerque Center
Thu 04:05:22 PM 34.6858 -101.2131 88° East 544 626 37,000  Level Albuquerque Center
Thu 04:06:24 PM 34.6933 -101.0311 87° East 544 626 37,000  Level Albuquerque Center
Thu 04:07:27 PM 34.7000 -100.8128 88° East 543 625 37,000  Level Albuquerque Center
Thu 04:08:29 PM 34.7058 -100.6331 88° East 539 620 37,000  Level Albuquerque Center
Thu 04:09:31 PM 34.7117 -100.4542 88° East 534 615 37,000  Level Albuquerque Center
Thu 04:10:33 PM 34.7181 -100.2522 88° East 535 616 37,000  Level Albuquerque Center
Thu 04:11:35 PM 34.7231 -100.0717 88° East 535 616 37,000  Level Albuquerque Center
Thu 04:12:37 PM 34.7264 -99.8906 89° East 535 616 37,000  Level Albuquerque Center
Thu 04:13:15 PM 34.7289 -99.7833 88° East 531 611 37,000  Level Fort Worth Center
Thu 04:14:15 PM 34.7319 -99.6067 89° East 531 611 37,000  Level Fort Worth Center
Thu 04:15:15 PM 34.7350 -99.4222 89° East 531 611 37,000  Level Fort Worth Center
Thu 04:16:15 PM 34.7400 -99.2456 88° East 531 611 37,000  Level Fort Worth Center
Thu 04:17:15 PM 34.7425 -99.0661 89° East 531 611 37,000  Level Fort Worth Center
Thu 04:18:15 PM 34.7467 -98.8869 88° East 531 611 37,000  Level Fort Worth Center
Thu 04:19:15 PM 34.7508 -98.7075 88° East 531 611 37,000  Level Fort Worth Center
Thu 04:20:15 PM 34.7525 -98.5281 89° East 531 611 37,000  Level Fort Worth Center
Thu 04:21:15 PM 34.7542 -98.3361 89° East 526 605 37,000  Level Fort Worth Center
Thu 04:22:15 PM 34.7553 -98.1567 90° East 526 605 37,000  Level Fort Worth Center
Thu 04:23:15 PM 34.7583 -97.9747 89° East 526 605 37,000  Level Fort Worth Center
Thu 04:24:15 PM 34.7589 -97.7953 90° East 531 611 37,000  Level Fort Worth Center
Thu 04:25:15 PM 34.7594 -97.6081 90° East 536 617 37,000  Level Fort Worth Center
Thu 04:26:15 PM 34.7617 -97.4261 89° East 536 617 37,000  Level Fort Worth Center
Thu 04:27:15 PM 34.7594 -97.2417 91° East 536 617 37,000  Level Fort Worth Center
Thu 04:28:15 PM 34.7611 -97.0597 89° East 536 617 37,000  Level Fort Worth Center
Thu 04:29:15 PM 34.7606 -96.8803 90° East 531 611 37,000  Level Fort Worth Center
Thu 04:30:15 PM 34.7617 -96.6958 90° East 531 611 37,000  Level Fort Worth Center
Thu 04:31:15 PM 34.7606 -96.5136 90° East 531 611 37,000  Level Fort Worth Center
Thu 04:32:15 PM 34.7614 -96.3342 90° East 531 611 37,000  Level Fort Worth Center
Thu 04:33:15 PM 34.7594 -96.1522 91° East 531 611 37,000  Level Fort Worth Center
Thu 04:34:15 PM 34.7575 -95.9703 91° East 531 611 37,000  Level Fort Worth Center
Thu 04:35:15 PM 34.7575 -95.7883 90° East 531 611 37,000  Level Fort Worth Center
Thu 04:36:53 PM 34.7589 -95.5136 90° East 573 659 37,000  Level Memphis Center
Thu 04:37:53 PM 34.7558 -95.3342 91° East 551 634 37,000  Level Memphis Center
Thu 04:38:53 PM 34.7525 -95.1519 91° East 546 628 37,000 -250 Level Memphis Center
Thu 04:39:53 PM 34.7511 -94.9697 90° East 540 621 36,500 -900 Descending Memphis Center
Thu 04:40:53 PM 34.7472 -94.7903 91° East 535 616 35,200 -2,450 Descending Memphis Center
Thu 04:41:53 PM 34.7450 -94.6158 91° East 530 610 31,600 -3,600 Descending Memphis Center
Thu 04:42:53 PM 34.6942 -94.4514 111° Southeast 517 595 28,000 -3,800 Descending Memphis Center
Thu 04:43:53 PM 34.6328 -94.2819 114° Southeast 494 568 24,000 -2,500 Descending Memphis Center
Thu 04:44:53 PM 34.6231 -94.1225 94° East 469 540 23,000 -500 Descending Memphis Center
Thu 04:45:53 PM 34.6753 -93.9833 65° Northeast 440 506 23,000  Level Memphis Center
Thu 04:46:53 PM 34.7267 -93.8567 64° Northeast 418 481 23,000 -700 Level Memphis Center
Thu 04:47:53 PM 34.7886 -93.7356 58° Northeast 418 481 21,600 -1,250 Descending Memphis Center
Thu 04:48:53 PM 34.8519 -93.6217 56° Northeast 411 473 20,500 -1,500 Descending Memphis Center
Thu 04:49:53 PM 34.9114 -93.5100 57° Northeast 399 459 18,600 -1,850 Descending Memphis Center
Thu 04:50:53 PM 34.9642 -93.3953 61° Northeast 394 453 16,800 -2,050 Descending Memphis Center
Thu 04:51:53 PM 35.0169 -93.2806 61° Northeast 382 440 14,500 -2,050 Descending Memphis Center
Thu 04:52:53 PM 35.0633 -93.1681 63° Northeast 382 440 12,700 -1,550 Descending Memphis Center
Thu 04:53:53 PM 35.0658 -93.0617 88° East 337 388 11,400 -1,357 Descending Memphis Center
Thu 04:54:48 PM 35.0656 -92.9728 90° East 312 359 10,100 -700 Descending Memphis Center
Thu 04:55:53 PM 35.0492 -92.8581 100° East 310 357 10,000  Descending Memphis Center
Thu 04:56:43 PM 35.0381 -92.7817 100° East 306 352 10,100 -649 Climbing Memphis Center
Thu 04:57:44 PM 35.0422 -92.6703 87° East 315 362 8,800 -1,289 Descending Memphis Center
Thu 04:58:44 PM 35.0506 -92.5664 84° East 313 360 7,500 -1,163 Descending Memphis Center
Thu 04:59:53 PM 35.0567 -92.4475 86° East 306 352 6,300 -934 Descending Memphis Center
Thu 05:00:46 PM 35.0453 -92.3711 100° East 267 307 5,600 -600 Descending Memphis Center
Thu 05:01:53 PM 35.0344 -92.2692 97° East 269 310 5,100 -236 Descending Memphis Center
Thu 05:02:53 PM 35.0064 -92.1978 116° Southeast 249 287 5,100  Level Memphis Center
Thu 05:03:48 PM 34.9675 -92.1361 128° Southeast 237 273 5,100 -500 Level Memphis Center
Thu 05:04:53 PM 34.9269 -92.0642 124° Southeast 238 274 4,100 -1,240 Descending Memphis Center
Thu 05:05:49 PM 34.8728 -92.0606 177° South 181 208 2,600 -1,034 Descending Memphis Center
Thu 05:06:49 PM 34.8431 -92.0828 212° Southwest 131 151 2,100 -248 Descending Memphis Center
Thu 05:07:50 PM 34.8156 -92.1228 230° Southwest 132 152 2,100 -145 Level Memphis Center
Thu 05:08:53 PM 34.7878 -92.1575 226° Southwest 140 161 1,800 -496 Descending Memphis Center
Thu 05:09:51 PM 34.7625 -92.1872 224° Southwest 134 154 1,100 -724 Descending Memphis Center

Login

Don't have an account? Register now (free) for customized features, flight alerts, and more!